Hlavní strana
METAR-TAF:

METAR-TAF

Letiště :

Bogotá, Kolumbie

zeměpisná šířka: 04-43N, zeměpisná délka: 074-09W, výška: 2547 m

Aktuální stav počasí

Zpráva byla vytvořena před 22 minutami, v 11:00 UTC
vítr z různých směrů 2 kt
Teplota 10°C
Vlhkost vzduchu 87%
Tlak 1027 hPa
Viditelnost 10 km a více
Polojasno ve výšce 1500 ft
Oblačno až skoro zataženo ve výšce 8000 ft

METAR: SKBO 241100Z VRB02KT 9999 SCT015 BKN080 10/08 A3032 NOSIG

Čas: 06:22 (11:22 UTC)

Předpověď počasí

Zpráva byla vytvořena před 6 hodinami a 52 minutami, v 04:30 UTC
Předpověď platná od 24 v 06 UTC do 25 v 06 UTC
vítr z různých směrů 2 kt
Viditelnost 10 km a více
Skoro jasno ve výšce 2000 ft
Změna
od 24 v 15 UTC do 24 v 17 UTC
Severozápadní vítr 12 kt

TAF: SKBO 240430Z 2406/2506 VRB02KT 9999 FEW020 BECMG 2415/2417 32012KT TX22/2418Z TN09/2410Z

Stav a předpovědi počasí z více než 4 000 letišť (zprávy METAR a TAF).

Červené a žluté tečky na mapě představují dostupné meteorologické stanice.

Když kurzor umístíte na tečku, zobrazí se název stanice.

Pak kliknutím zobrazíte stav a předpověď počasí.

Chcete-li změnit mapu, kliknutím na zelené tlačítko se znaménkem +mapu přiblížíte, kliknutím na zelené tlačítko se znaménkem – mapu oddálíte a kliknutím na zelené šipky přejdete na sousední mapy.


METAR-TAF: